Crandall, Texas
Current Conditions -  °F | °C
As of 10:10 AM on Sunday 23 Nov 2014 (Local Time) from KHQZ Reporting Station
Scattered Clouds Scattered Clouds  
Wind Chill: 61°   Ceiling: Unl
Heat Index: 61°   Visibility: 10mi
Dew Point: 61°   Wind: 14mph
Humidity: 100%   Direction: 180°S
Pressure: 29.53"   Gusts: NA
Location:  32.63°N, 96.46°W
Report Text: KHQZ 231610Z 18012KT 10SM SCT007 16/16 A2953
Loading
Personal Weather Stations






























Interactive Weather Map New forecast layout! Learn more

10-Day Weather Forecast

Advertisements
Track Severe Weather on mobile